Hamiota, Canada
Current Conditions -  °F | °C
As of 3:00 PM on Saturday 25 Oct 2014 (Local Time) from CYBR Reporting Station
Scattered Clouds Scattered Clouds  
Wind Chill: 59°   Ceiling: Unl
Heat Index: 59°   Visibility: 15mi
Dew Point: 27°   Wind: 22mph
Humidity: 29%   Direction: 280°W
Pressure: 30.03"   Gusts: 30mph
Location:  50.18°N, 100.6°W
Report Text: CYBR 252000Z 28019G26KT 15SM SCT250 15/M03 A3003 RMK CI4 SLP181 DENSITY ALT 1500FT
Loading
Personal Weather Stations






























Interactive Weather Map
Tropical Storm Tracking
New forecast layout! Learn more

10-Day Weather Forecast

Advertisements
Track Severe Weather on mobile